ESGR

Skövde Airport

Skövde, Sweden
METAR ESGR 221850Z AUTO 15003KT 9999 OVC042/// M02/M03 Q1007
Observed Flight Rules
Jan-22 @ 18:50 UTC (37 minutes ago) Visual Flight Rules
Wind Visibility Clouds
150° at 3 knots 10,000+ meters
  • Overcast at 4,200' AGL
Temperatures Readings
Current -2°C / 28°F
Dewpoint -3°C / 27°F
Humidity 93%
Altimeter 29.73" Hg
Pressure 1006.92 hPa
Elevation 105
METAR ESGR 221850Z AUTO 15003KT 9999 OVC042/// M02/M03 Q1007
Observed Flight Rules
Jan-22 @ 18:50 UTC
(37 minutes ago)
VFR
Wind Visibility
150° at 3 knots 10,000+ meters
Clouds
  • Overcast at 4,200' AGL
Temperature Dewpoint
-2°C / 28°F -3°C / 27°F
Humidity Altimeter Pressure
93% 29.73" Hg 1006.92 hPa